Time;durP1;ratioP1;P1;durP2;ratioP2;P2;SDS_P1;SDS_P2;PMS_P1;PMS_P2;Temp;Humidity;BMP_temperature;BMP_pressure;BME280_temperature;BME280_humidity;BME280_pressure;Samples;Min_cycle;Max_cycle;Signal;HPM_P1;HPM_P2
2023/07/09 00:00:09;;;;;;;9.77;3.60;;;18.80;99.90;;;;;;4979230;28;20056;-81
2023/07/09 00:02:35;;;;;;;9.25;3.40;;;18.80;99.90;;;;;;4996558;28;20056;-78
2023/07/09 00:07:32;;;;;;;11.32;3.72;;;18.70;99.90;;;;;;4976775;28;20066;-79
2023/07/09 00:09:58;;;;;;;11.98;3.45;;;18.70;99.90;;;;;;4975799;28;20043;-81
2023/07/09 00:12:25;;;;;;;11.40;3.67;;;18.70;99.90;;;;;;5000575;28;20472;-80
2023/07/09 00:14:52;;;;;;;9.52;3.85;;;18.60;99.90;;;;;;5015814;28;20058;-79
2023/07/09 00:17:20;;;;;;;10.73;3.63;;;18.60;99.90;;;;;;5015620;28;20115;-81
2023/07/09 00:19:47;;;;;;;9.38;3.75;;;18.50;99.90;;;;;;5014770;28;20066;-79
2023/07/09 00:22:16;;;;;;;8.70;3.38;;;18.40;99.90;;;;;;5016164;28;20069;-81
2023/07/09 00:24:44;;;;;;;9.73;4.15;;;18.40;99.90;;;;;;5014886;28;20041;-82
2023/07/09 00:27:10;;;;;;;10.77;3.63;;;18.30;99.90;;;;;;5015305;28;20084;-81
2023/07/09 00:29:37;;;;;;;8.60;3.55;;;18.30;99.90;;;;;;5030927;28;20046;-78
2023/07/09 00:32:04;;;;;;;12.05;3.38;;;18.20;99.90;;;;;;5030214;28;20073;-81
2023/07/09 00:34:30;;;;;;;9.35;3.85;;;18.20;99.90;;;;;;5015858;28;20080;-81
2023/07/09 00:36:59;;;;;;;9.48;3.72;;;18.10;99.90;;;;;;5030542;28;20042;-80
2023/07/09 00:39:27;;;;;;;8.85;3.25;;;18.10;99.90;;;;;;5029852;28;20045;-79
2023/07/09 00:41:54;;;;;;;9.98;3.38;;;18.10;99.90;;;;;;5015771;28;20073;-79
2023/07/09 00:44:21;;;;;;;10.27;3.95;;;18.00;99.90;;;;;;5030444;28;20095;-79
2023/07/09 00:46:50;;;;;;;8.00;3.20;;;18.00;99.90;;;;;;5014964;28;20045;-79
2023/07/09 00:49:17;;;;;;;10.98;3.63;;;17.90;99.90;;;;;;5015239;28;20082;-81
2023/07/09 00:51:45;;;;;;;9.70;3.45;;;17.90;99.90;;;;;;5014321;28;20492;-81
2023/07/09 00:54:14;;;;;;;17.33;3.47;;;17.90;99.90;;;;;;5015231;28;20121;-79
2023/07/09 00:56:42;;;;;;;8.98;3.10;;;17.90;99.90;;;;;;5030560;28;20095;-79
2023/07/09 00:59:08;;;;;;;9.18;3.45;;;17.80;99.90;;;;;;5026612;28;20050;-79
2023/07/09 01:01:36;;;;;;;11.50;3.60;;;17.80;99.90;;;;;;5013447;28;20038;-81
2023/07/09 01:04:04;;;;;;;10.30;3.50;;;17.80;99.90;;;;;;5014926;28;20457;-80
2023/07/09 01:06:34;;;;;;;6.97;3.10;;;17.80;99.90;;;;;;5029383;28;20145;-81
2023/07/09 01:09:01;;;;;;;10.63;3.50;;;17.80;99.90;;;;;;5030452;28;20049;-82
2023/07/09 01:11:32;;;;;;;10.02;3.67;;;17.80;99.90;;;;;;5014273;28;20050;-79
2023/07/09 01:13:59;;;;;;;13.07;3.90;;;17.80;99.90;;;;;;4997677;28;20050;-80
2023/07/09 01:19:16;;;;;;;11.90;3.42;;;17.80;99.90;;;;;;5013120;28;20092;-80
2023/07/09 01:21:43;;;;;;;8.57;2.95;;;17.90;99.90;;;;;;4997949;28;20107;-79
2023/07/09 01:24:11;;;;;;;11.60;3.60;;;18.00;99.90;;;;;;5014070;28;20069;-81
2023/07/09 01:26:40;;;;;;;11.70;3.17;;;18.00;99.90;;;;;;4996786;28;20329;-81
2023/07/09 01:29:07;;;;;;;9.80;3.65;;;18.00;99.90;;;;;;5013878;28;20057;-80
2023/07/09 01:31:35;;;;;;;20.75;4.15;;;18.00;99.90;;;;;;5013895;28;20057;-81
2023/07/09 01:34:02;;;;;;;9.15;3.50;;;18.10;99.90;;;;;;4997807;28;20069;-82
2023/07/09 01:36:31;;;;;;;8.43;3.45;;;18.10;99.90;;;;;;5014422;28;20065;-82
2023/07/09 01:38:58;;;;;;;8.50;3.05;;;18.10;99.90;;;;;;4996647;28;20056;-81
2023/07/09 01:41:24;;;;;;;8.77;3.25;;;18.20;99.90;;;;;;5014321;28;20457;-82
2023/07/09 01:43:52;;;;;;;10.77;3.47;;;18.10;99.90;;;;;;5013899;28;20046;-79
2023/07/09 01:46:21;;;;;;;8.32;3.08;;;18.20;99.90;;;;;;5013571;28;20049;-79
2023/07/09 01:48:50;;;;;;;9.60;3.03;;;18.20;99.90;;;;;;4997550;28;20476;-80
2023/07/09 01:51:16;;;;;;;8.93;3.10;;;18.20;99.90;;;;;;5013767;28;20408;-79
2023/07/09 01:53:44;;;;;;;10.10;3.10;;;18.20;99.90;;;;;;5014613;28;20046;-80
2023/07/09 01:56:12;;;;;;;11.55;3.38;;;18.20;99.90;;;;;;5014108;28;20041;-79
2023/07/09 01:58:41;;;;;;;7.78;3.13;;;18.20;99.90;;;;;;5012624;28;20045;-79
2023/07/09 02:01:10;;;;;;;9.30;2.97;;;18.20;99.90;;;;;;4997337;28;20073;-81
2023/07/09 02:03:37;;;;;;;11.75;3.67;;;18.20;99.90;;;;;;4997005;28;20380;-79
2023/07/09 02:06:09;;;;;;;10.13;3.47;;;18.10;99.90;;;;;;5012416;28;20049;-81
2023/07/09 02:08:36;;;;;;;9.85;3.00;;;18.10;99.90;;;;;;4997783;28;20052;-81
2023/07/09 02:11:03;;;;;;;10.38;3.38;;;18.20;99.90;;;;;;4996231;28;20392;-81
2023/07/09 02:13:30;;;;;;;8.18;3.33;;;18.20;99.90;;;;;;4999998;28;20117;-80
2023/07/09 02:15:57;;;;;;;8.35;2.95;;;18.10;99.90;;;;;;5000719;28;20069;-79
2023/07/09 02:18:24;;;;;;;10.43;3.47;;;18.10;99.90;;;;;;4999984;28;20046;-78
2023/07/09 02:20:51;;;;;;;8.60;3.13;;;18.10;99.90;;;;;;5017899;28;20037;-80
2023/07/09 02:23:18;;;;;;;7.38;3.20;;;18.10;99.90;;;;;;5001078;28;20132;-79
2023/07/09 02:25:45;;;;;;;9.02;3.10;;;18.10;99.90;;;;;;4999265;28;20049;-81
2023/07/09 02:28:11;;;;;;;8.77;2.92;;;18.00;99.90;;;;;;5017648;28;20041;-82
2023/07/09 02:30:38;;;;;;;7.55;2.97;;;18.00;99.90;;;;;;5017561;28;20066;-81
2023/07/09 02:33:05;;;;;;;11.10;3.03;;;18.00;99.90;;;;;;5000180;28;20429;-79
2023/07/09 02:35:32;;;;;;;7.78;2.95;;;17.90;99.90;;;;;;5000280;28;20420;-78
2023/07/09 02:38:00;;;;;;;10.73;2.95;;;17.80;99.90;;;;;;5016666;28;20030;-79
2023/07/09 02:40:26;;;;;;;8.55;3.03;;;17.80;99.90;;;;;;5017437;28;20043;-80
2023/07/09 02:42:53;;;;;;;7.53;2.50;;;17.80;99.90;;;;;;5017823;28;20418;-80
2023/07/09 02:45:21;;;;;;;7.90;2.63;;;17.70;99.90;;;;;;5016394;28;20042;-80
2023/07/09 02:47:48;;;;;;;9.40;2.92;;;17.70;99.90;;;;;;5000603;28;20064;-80
2023/07/09 02:50:15;;;;;;;8.65;3.10;;;17.60;99.90;;;;;;4997832;28;20487;-81
2023/07/09 02:52:42;;;;;;;7.95;2.80;;;17.60;99.90;;;;;;4979661;28;20054;-79
2023/07/09 02:55:11;;;;;;;10.02;3.25;;;17.50;99.90;;;;;;4980144;28;20101;-80
2023/07/09 02:57:38;;;;;;;9.45;3.13;;;17.50;99.90;;;;;;4997880;28;20034;-80
2023/07/09 03:00:05;;;;;;;9.25;2.75;;;17.50;99.90;;;;;;4979475;28;20038;-81
2023/07/09 03:02:32;;;;;;;9.95;2.60;;;17.50;99.90;;;;;;4980790;28;20061;-80
2023/07/09 03:05:00;;;;;;;8.07;2.70;;;17.50;99.90;;;;;;4979585;28;20042;-80
2023/07/09 03:07:27;;;;;;;9.30;2.85;;;17.40;99.90;;;;;;4980249;28;20046;-80
2023/07/09 03:09:54;;;;;;;8.52;2.65;;;17.40;99.90;;;;;;4980339;28;20070;-81
2023/07/09 03:12:20;;;;;;;7.38;2.85;;;17.30;99.90;;;;;;4996531;28;20050;-80
2023/07/09 03:14:47;;;;;;;6.10;2.42;;;17.30;99.90;;;;;;4996932;28;20046;-80
2023/07/09 03:17:14;;;;;;;9.18;2.30;;;17.20;99.90;;;;;;4979896;28;20488;-79
2023/07/09 03:19:41;;;;;;;10.52;2.63;;;17.20;99.90;;;;;;4979163;28;20061;-80
2023/07/09 03:22:07;;;;;;;10.63;2.75;;;17.10;99.90;;;;;;4980273;28;20141;-81
2023/07/09 03:24:34;;;;;;;8.35;2.58;;;17.10;99.90;;;;;;4978911;28;20066;-81
2023/07/09 03:27:02;;;;;;;11.57;2.60;;;17.10;99.90;;;;;;4997077;28;20054;-82
2023/07/09 03:29:29;;;;;;;9.27;2.83;;;17.00;99.90;;;;;;4979701;28;20116;-80
2023/07/09 03:31:56;;;;;;;6.90;2.72;;;17.00;99.90;;;;;;4979106;28;20054;-81
2023/07/09 03:34:22;;;;;;;10.57;2.80;;;16.90;99.90;;;;;;4997206;28;20038;-80
2023/07/09 03:39:21;;;;;;;11.77;2.78;;;17.00;99.90;;;;;;4978865;28;20050;-78
2023/07/09 03:41:47;;;;;;;10.55;2.90;;;17.00;99.90;;;;;;4997306;28;20137;-80
2023/07/09 03:44:14;;;;;;;10.10;2.70;;;17.00;99.90;;;;;;4996566;28;20049;-80
2023/07/09 03:46:42;;;;;;;8.52;3.13;;;17.00;99.90;;;;;;4995505;28;20121;-79
2023/07/09 03:49:09;;;;;;;6.55;2.67;;;17.10;99.90;;;;;;4996847;28;20070;-80
2023/07/09 03:51:36;;;;;;;10.27;2.97;;;17.00;99.90;;;;;;4996082;28;20058;-80
2023/07/09 03:54:02;;;;;;;7.32;2.25;;;17.00;99.90;;;;;;4996902;28;20050;-80
2023/07/09 03:56:30;;;;;;;10.45;2.75;;;17.00;99.90;;;;;;4996582;28;22005;-81
2023/07/09 03:58:57;;;;;;;11.18;2.70;;;17.00;99.90;;;;;;4995617;28;20053;-80
2023/07/09 04:01:24;;;;;;;10.02;2.30;;;17.00;99.90;;;;;;4979530;28;20038;-81
2023/07/09 04:03:50;;;;;;;6.75;2.20;;;17.00;99.90;;;;;;4996527;28;20053;-80
2023/07/09 04:06:17;;;;;;;9.05;2.63;;;17.10;99.90;;;;;;4995141;28;20042;-81
2023/07/09 04:08:44;;;;;;;8.75;3.00;;;17.10;99.90;;;;;;4996558;28;20476;-79
2023/07/09 04:11:11;;;;;;;7.47;2.88;;;17.10;99.90;;;;;;4995110;28;20519;-79
2023/07/09 04:13:38;;;;;;;7.70;2.92;;;17.20;99.90;;;;;;4979141;28;20088;-79
2023/07/09 04:16:05;;;;;;;9.52;3.28;;;17.20;99.90;;;;;;4978934;28;20042;-79
2023/07/09 04:18:33;;;;;;;8.57;2.90;;;17.20;99.90;;;;;;4978199;28;20401;-80
2023/07/09 04:20:59;;;;;;;8.00;2.80;;;17.30;99.90;;;;;;4978930;28;20113;-80
2023/07/09 04:23:26;;;;;;;7.00;2.60;;;17.30;99.90;;;;;;4996623;28;20077;-80
2023/07/09 04:25:53;;;;;;;6.35;2.60;;;17.30;99.90;;;;;;4994991;28;20109;-80
2023/07/09 04:28:20;;;;;;;11.52;2.80;;;17.30;99.90;;;;;;4995810;28;20048;-78
2023/07/09 04:30:47;;;;;;;7.20;2.67;;;17.30;99.90;;;;;;4996368;28;20525;-81
2023/07/09 04:33:17;;;;;;;7.47;2.78;;;17.30;99.90;;;;;;4995134;28;20461;-81
2023/07/09 04:35:44;;;;;;;9.13;2.60;;;17.30;99.90;;;;;;4995571;28;20081;-80
2023/07/09 04:38:11;;;;;;;10.55;2.67;;;17.30;99.90;;;;;;4995263;28;20509;-80
2023/07/09 04:40:37;;;;;;;7.45;3.03;;;17.30;99.90;;;;;;4979338;28;20477;-78
2023/07/09 04:43:04;;;;;;;8.98;2.67;;;17.30;99.90;;;;;;4978672;28;20050;-79
2023/07/09 04:45:31;;;;;;;10.00;2.60;;;17.30;99.90;;;;;;4994830;28;20080;-80
2023/07/09 04:47:58;;;;;;;7.45;2.40;;;17.30;99.90;;;;;;4995611;28;20453;-81
2023/07/09 04:50:24;;;;;;;9.73;2.97;;;17.40;99.90;;;;;;4995530;28;20046;-81
2023/07/09 04:52:52;;;;;;;10.45;2.90;;;17.40;99.90;;;;;;4995204;28;20042;-80
2023/07/09 04:58:05;;;;;;;18.58;3.38;;;17.50;99.90;;;;;;4994644;28;20097;-79
2023/07/09 05:00:32;;;;;;;11.10;2.60;;;17.40;99.90;;;;;;4978675;28;20038;-80
2023/07/09 05:02:59;;;;;;;9.02;2.90;;;17.40;99.90;;;;;;4995327;28;20054;-79
2023/07/09 05:05:26;;;;;;;11.15;2.78;;;17.40;99.90;;;;;;4994876;28;20043;-79
2023/07/09 05:07:53;;;;;;;11.73;2.88;;;17.40;99.90;;;;;;4996037;28;20038;-79
2023/07/09 05:10:20;;;;;;;10.35;3.30;;;17.40;99.90;;;;;;4995269;28;20043;-80
2023/07/09 05:12:46;;;;;;;10.70;3.38;;;17.40;99.90;;;;;;4994259;28;20085;-79
2023/07/09 05:15:15;;;;;;;8.88;2.88;;;17.40;99.90;;;;;;4962188;28;20564;-80
2023/07/09 05:17:42;;;;;;;13.30;3.03;;;17.40;99.90;;;;;;4977433;28;20042;-80
2023/07/09 05:20:09;;;;;;;8.10;2.78;;;17.40;99.90;;;;;;4978713;28;20039;-80
2023/07/09 05:22:35;;;;;;;8.40;2.70;;;17.50;99.90;;;;;;4995883;28;20519;-80
2023/07/09 05:25:02;;;;;;;10.85;3.00;;;17.50;99.90;;;;;;4994075;28;20360;-80
2023/07/09 05:27:29;;;;;;;9.98;2.63;;;17.50;99.90;;;;;;4995248;28;20038;-80
2023/07/09 05:29:56;;;;;;;11.00;2.65;;;17.60;99.90;;;;;;4995230;28;20081;-80
2023/07/09 05:32:22;;;;;;;6.72;2.60;;;17.60;99.90;;;;;;4994428;28;20050;-81
2023/07/09 05:34:50;;;;;;;6.88;2.60;;;17.70;99.90;;;;;;4994786;28;20053;-80
2023/07/09 05:37:17;;;;;;;8.20;2.50;;;17.70;99.90;;;;;;4995475;28;20046;-81
2023/07/09 05:39:44;;;;;;;9.63;2.42;;;17.70;99.90;;;;;;4977590;28;20097;-80
2023/07/09 05:42:10;;;;;;;16.60;2.70;;;17.70;99.90;;;;;;4994996;28;20042;-81
2023/07/09 05:44:37;;;;;;;8.82;2.58;;;17.80;99.90;;;;;;4993981;28;20104;-79
2023/07/09 05:47:04;;;;;;;8.48;2.40;;;17.90;99.90;;;;;;4995538;28;20069;-81
2023/07/09 05:49:31;;;;;;;6.65;2.30;;;18.00;99.90;;;;;;4999341;28;20449;-79
2023/07/09 05:51:57;;;;;;;7.22;2.33;;;18.00;99.90;;;;;;4980869;28;20050;-81
2023/07/09 05:54:24;;;;;;;10.73;2.53;;;18.00;99.90;;;;;;4998650;28;20049;-80
2023/07/09 05:56:52;;;;;;;9.45;2.42;;;18.10;99.90;;;;;;4998968;28;20054;-81
2023/07/09 05:59:19;;;;;;;8.95;2.45;;;18.00;99.90;;;;;;4997763;28;20092;-81
2023/07/09 06:01:45;;;;;;;9.27;2.42;;;18.00;99.90;;;;;;4998507;28;20046;-81
2023/07/09 06:04:13;;;;;;;7.95;2.10;;;18.00;99.90;;;;;;4981967;28;20462;-78
2023/07/09 06:06:41;;;;;;;8.27;2.25;;;18.00;99.90;;;;;;5010238;28;20046;-80
2023/07/09 06:09:08;;;;;;;7.10;2.15;;;18.10;99.90;;;;;;5001110;28;20393;-81
2023/07/09 06:11:39;;;;;;;11.55;2.33;;;18.20;99.90;;;;;;4997557;28;20061;-81
2023/07/09 06:14:06;;;;;;;7.60;2.42;;;18.20;99.90;;;;;;5006216;28;20050;-82
2023/07/09 06:16:34;;;;;;;10.20;2.13;;;18.20;99.90;;;;;;4991432;28;20042;-84
2023/07/09 06:19:01;;;;;;;9.45;2.25;;;18.10;99.90;;;;;;4997130;28;20046;-83
2023/07/09 06:21:28;;;;;;;8.63;2.38;;;18.20;99.90;;;;;;4998147;28;20417;-83
2023/07/09 06:23:54;;;;;;;9.05;2.15;;;18.10;99.90;;;;;;4997208;28;20042;-84
2023/07/09 06:26:23;;;;;;;8.30;2.40;;;18.10;99.90;;;;;;4996573;28;20043;-82
2023/07/09 06:28:50;;;;;;;8.43;2.00;;;18.10;99.90;;;;;;4997502;28;20112;-82
2023/07/09 06:31:18;;;;;;;13.52;2.28;;;18.10;99.90;;;;;;4997350;28;20099;-80
2023/07/09 06:33:44;;;;;;;11.95;2.38;;;18.00;99.90;;;;;;4997091;28;20053;-81
2023/07/09 06:36:13;;;;;;;7.20;2.33;;;18.00;99.90;;;;;;4996735;28;20117;-82
2023/07/09 06:38:40;;;;;;;12.43;2.28;;;18.00;99.90;;;;;;4997078;28;20078;-82
2023/07/09 06:41:07;;;;;;;8.00;2.20;;;18.10;99.90;;;;;;4996791;28;20042;-82
2023/07/09 06:43:34;;;;;;;8.68;2.10;;;18.20;99.90;;;;;;4998124;28;20481;-79
2023/07/09 06:46:02;;;;;;;6.55;2.03;;;18.20;99.90;;;;;;4996799;28;20089;-80
2023/07/09 06:48:29;;;;;;;11.43;2.58;;;18.30;99.90;;;;;;5005146;28;20461;-81
2023/07/09 06:50:56;;;;;;;11.48;2.15;;;18.40;99.90;;;;;;4997010;28;20050;-80
2023/07/09 06:53:23;;;;;;;12.70;2.17;;;18.50;99.90;;;;;;4996498;28;20046;-80
2023/07/09 06:55:52;;;;;;;8.52;2.78;;;18.60;99.90;;;;;;4997296;28;20121;-79
2023/07/09 06:58:19;;;;;;;14.05;2.38;;;18.60;99.90;;;;;;4995760;28;20049;-82
2023/07/09 07:00:46;;;;;;;7.93;2.08;;;18.70;99.90;;;;;;4996278;28;20105;-80
2023/07/09 07:03:12;;;;;;;8.60;2.08;;;18.80;99.90;;;;;;4996978;28;20085;-81
2023/07/09 07:05:41;;;;;;;7.38;1.90;;;18.90;99.90;;;;;;4992019;28;20446;-80
2023/07/09 07:08:08;;;;;;;6.47;2.13;;;18.90;99.90;;;;;;4992447;28;20045;-80
2023/07/09 07:10:35;;;;;;;10.35;1.90;;;18.90;99.90;;;;;;5012545;28;20097;-82
2023/07/09 07:13:02;;;;;;;10.93;2.20;;;18.90;99.90;;;;;;5011376;28;20081;-82
2023/07/09 07:15:28;;;;;;;10.77;2.63;;;18.90;99.90;;;;;;5012156;28;20413;-82
2023/07/09 07:17:55;;;;;;;12.02;2.42;;;18.90;99.90;;;;;;5012126;28;20104;-82
2023/07/09 07:20:22;;;;;;;8.20;2.00;;;19.00;99.90;;;;;;4997970;28;20140;-83
2023/07/09 07:22:49;;;;;;;9.10;2.13;;;19.10;99.90;;;;;;5012370;28;20097;-80
2023/07/09 07:25:17;;;;;;;7.15;1.60;;;19.20;99.90;;;;;;5011122;28;20070;-81
2023/07/09 07:27:43;;;;;;;9.93;1.90;;;19.30;99.90;;;;;;5000249;28;20109;-82
2023/07/09 07:30:10;;;;;;;9.95;2.70;;;19.40;99.90;;;;;;4976373;28;20097;-81
2023/07/09 07:32:37;;;;;;;14.05;3.05;;;19.50;99.90;;;;;;4976556;28;20466;-81
2023/07/09 07:37:49;;;;;;;8.68;2.60;;;19.60;99.90;;;;;;4976235;28;20466;-82
2023/07/09 07:40:16;;;;;;;8.63;2.00;;;19.70;99.90;;;;;;4977174;28;20513;-81
2023/07/09 07:42:43;;;;;;;12.93;2.50;;;19.90;99.90;;;;;;4977114;28;20042;-82
2023/07/09 07:45:10;;;;;;;7.20;2.08;;;20.20;99.90;;;;;;4974939;28;20038;-82
2023/07/09 07:47:39;;;;;;;7.63;1.92;;;20.30;99.90;;;;;;5000702;28;20485;-79
2023/07/09 07:50:06;;;;;;;11.07;1.90;;;20.30;99.90;;;;;;4976843;28;20378;-81
2023/07/09 07:52:32;;;;;;;10.48;1.98;;;20.30;99.90;;;;;;4991315;28;20058;-81
2023/07/09 07:55:00;;;;;;;6.93;1.80;;;20.20;99.90;;;;;;4976613;28;20089;-82
2023/07/09 07:57:27;;;;;;;7.72;1.80;;;20.30;99.90;;;;;;4977166;28;20078;-82
2023/07/09 07:59:54;;;;;;;12.13;2.30;;;20.20;99.90;;;;;;4991478;28;20043;-82
2023/07/09 08:02:20;;;;;;;8.23;1.55;;;20.30;99.90;;;;;;4995216;28;20038;-82
2023/07/09 08:04:47;;;;;;;8.32;1.52;;;20.50;99.90;;;;;;5010390;28;20069;-80
2023/07/09 08:07:14;;;;;;;8.35;1.73;;;20.60;99.90;;;;;;4995572;28;20053;-80
2023/07/09 08:09:41;;;;;;;8.05;1.55;;;20.80;99.90;;;;;;4995776;28;20066;-80
2023/07/09 08:12:12;;;;;;;11.35;1.65;;;21.10;99.90;;;;;;4994843;28;20113;-82
2023/07/09 08:14:41;;;;;;;10.30;1.95;;;21.20;99.90;;;;;;4996914;28;20042;-82
2023/07/09 08:17:09;;;;;;;6.75;1.40;;;21.50;99.90;;;;;;4986073;28;20113;-79
2023/07/09 08:19:36;;;;;;;7.35;1.70;;;21.60;99.90;;;;;;4962004;28;20608;-82
2023/07/09 08:22:03;;;;;;;6.70;1.67;;;21.60;99.90;;;;;;4992935;28;20038;-84
2023/07/09 08:24:29;;;;;;;5.53;1.30;;;21.40;99.90;;;;;;4993673;28;20039;-80
2023/07/09 08:27:00;;;;;;;4.88;1.35;;;21.50;99.90;;;;;;4994866;28;20065;-79
2023/07/09 08:29:26;;;;;;;4.50;1.30;;;21.40;99.90;;;;;;4978506;28;20074;-81
2023/07/09 08:31:53;;;;;;;8.07;1.42;;;21.20;99.90;;;;;;4995349;28;20046;-79
2023/07/09 08:34:20;;;;;;;8.90;1.67;;;21.00;99.90;;;;;;4978953;28;20116;-82
2023/07/09 08:36:47;;;;;;;8.02;1.98;;;20.80;99.90;;;;;;4995510;28;20477;-81
2023/07/09 08:39:15;;;;;;;8.52;2.10;;;20.80;99.90;;;;;;4995112;28;20105;-82
2023/07/09 08:41:41;;;;;;;10.32;2.17;;;20.80;99.90;;;;;;4978646;28;20101;-80
2023/07/09 08:44:08;;;;;;;6.50;1.83;;;20.80;99.90;;;;;;4978499;28;20050;-81
2023/07/09 08:46:36;;;;;;;6.43;1.55;;;20.70;99.90;;;;;;4994695;28;20041;-80
2023/07/09 08:49:03;;;;;;;5.70;1.45;;;20.60;99.90;;;;;;4995930;28;20061;-81
2023/07/09 08:51:30;;;;;;;4.85;1.50;;;20.50;99.90;;;;;;4994598;28;20117;-80
2023/07/09 08:53:56;;;;;;;7.68;1.70;;;20.50;99.90;;;;;;4994586;28;20051;-80
2023/07/09 08:56:24;;;;;;;6.68;1.48;;;20.50;99.90;;;;;;4995330;28;20125;-81
2023/07/09 08:58:51;;;;;;;11.57;1.80;;;20.50;99.90;;;;;;4977911;28;20488;-81
2023/07/09 09:01:17;;;;;;;7.88;1.88;;;20.50;99.90;;;;;;4996043;28;20069;-81
2023/07/09 09:03:44;;;;;;;7.82;1.63;;;20.60;99.90;;;;;;4995435;28;20075;-81
2023/07/09 09:06:12;;;;;;;6.00;1.40;;;20.70;99.90;;;;;;4994405;28;20500;-81
2023/07/09 09:08:39;;;;;;;7.57;1.70;;;20.70;99.90;;;;;;4995728;28;20054;-81
2023/07/09 09:11:06;;;;;;;4.35;1.58;;;20.70;99.90;;;;;;4994635;28;20038;-81
2023/07/09 09:13:33;;;;;;;4.47;1.40;;;20.70;99.90;;;;;;4994660;28;20121;-81
2023/07/09 09:16:01;;;;;;;7.45;1.67;;;20.80;99.90;;;;;;4977974;28;20043;-82
2023/07/09 09:18:27;;;;;;;5.95;1.60;;;20.80;99.90;;;;;;4994358;28;20047;-81
2023/07/09 09:20:56;;;;;;;6.38;1.30;;;20.90;99.90;;;;;;4994570;28;20034;-81
2023/07/09 09:23:23;;;;;;;7.30;1.50;;;21.00;99.90;;;;;;4998111;28;20047;-82
2023/07/09 09:28:39;;;;;;;5.03;1.65;;;20.90;99.90;;;;;;4998796;28;20046;-83
2023/07/09 09:31:06;;;;;;;5.93;1.75;;;20.90;99.90;;;;;;4998374;28;20121;-81
2023/07/09 09:33:33;;;;;;;6.03;1.30;;;20.90;99.90;;;;;;4998494;28;20446;-80
2023/07/09 09:36:03;;;;;;;6.93;1.80;;;21.10;99.90;;;;;;4998860;28;20093;-83
2023/07/09 09:38:29;;;;;;;8.82;2.00;;;21.20;99.90;;;;;;4998543;28;20121;-81
2023/07/09 09:40:56;;;;;;;9.35;3.00;;;21.40;99.90;;;;;;4998994;28;20078;-84
2023/07/09 09:43:23;;;;;;;14.07;4.10;;;21.50;99.90;;;;;;4999282;28;20096;-81
2023/07/09 09:45:50;;;;;;;11.65;3.67;;;21.60;99.90;;;;;;4996821;28;20066;-84
2023/07/09 09:48:17;;;;;;;8.68;2.45;;;21.80;99.90;;;;;;4998273;28;20054;-81
2023/07/09 09:50:45;;;;;;;9.25;2.08;;;21.90;99.90;;;;;;4999010;28;20038;-83
2023/07/09 09:53:12;;;;;;;6.32;1.73;;;21.90;99.90;;;;;;4997898;28;20065;-82
2023/07/09 09:58:24;;;;;;;6.53;1.83;;;22.10;99.90;;;;;;4998170;28;20050;-81
2023/07/09 10:00:51;;;;;;;8.80;2.00;;;22.10;99.90;;;;;;4982542;28;20097;-84
2023/07/09 10:03:18;;;;;;;5.55;1.60;;;22.30;99.90;;;;;;4998661;28;20057;-85
2023/07/09 10:05:45;;;;;;;10.07;1.73;;;22.30;99.90;;;;;;4997390;28;20035;-85
2023/07/09 10:08:12;;;;;;;5.97;1.60;;;22.40;99.90;;;;;;4998561;28;20081;-80
2023/07/09 10:10:39;;;;;;;6.25;1.60;;;22.70;99.90;;;;;;4998528;28;20097;-80
2023/07/09 10:13:05;;;;;;;5.25;1.55;;;22.80;99.90;;;;;;4980338;28;20062;-80
2023/07/09 10:15:33;;;;;;;7.32;1.60;;;22.80;99.90;;;;;;4998244;28;20046;-83
2023/07/09 10:18:00;;;;;;;5.28;1.50;;;22.70;99.90;;;;;;4980764;28;20493;-84
2023/07/09 10:20:27;;;;;;;7.60;1.63;;;22.70;99.90;;;;;;4998203;28;20535;-79
2023/07/09 10:22:54;;;;;;;6.57;1.63;;;22.80;99.90;;;;;;4981067;28;20042;-81
2023/07/09 10:25:22;;;;;;;5.05;1.45;;;23.10;99.90;;;;;;4997216;28;20046;-82
2023/07/09 10:27:49;;;;;;;8.90;1.80;;;23.30;99.90;;;;;;4998395;28;20089;-83
2023/07/09 10:30:15;;;;;;;5.78;1.80;;;23.50;99.90;;;;;;4981753;28;20097;-84
2023/07/09 10:32:48;;;;;;;4.85;1.40;;;23.60;99.90;;;;;;4997060;28;20054;-81
2023/07/09 10:35:15;;;;;;;8.82;1.50;;;23.40;99.90;;;;;;4981075;28;20050;-79
2023/07/09 10:37:41;;;;;;;5.40;1.40;;;23.50;99.90;;;;;;4981018;28;20061;-84
2023/07/09 10:40:08;;;;;;;6.38;1.73;;;23.70;99.90;;;;;;4981182;28;20039;-84
2023/07/09 10:42:35;;;;;;;5.22;1.48;;;23.90;99.90;;;;;;4997823;28;20230;-81
2023/07/09 10:45:03;;;;;;;5.72;1.35;;;24.10;99.90;;;;;;4980021;28;20104;-85
2023/07/09 10:47:29;;;;;;;9.13;2.17;;;24.50;99.90;;;;;;4998385;28;20043;-82
2023/07/09 10:49:56;;;;;;;6.50;1.73;;;24.50;99.90;;;;;;4997991;28;20466;-85
2023/07/09 10:52:23;;;;;;;7.47;1.40;;;24.60;99.90;;;;;;4979740;28;20098;-86
2023/07/09 10:54:49;;;;;;;9.15;2.38;;;24.40;99.90;;;;;;4997609;28;20521;-80
2023/07/09 10:57:16;;;;;;;7.80;1.48;;;24.20;99.90;;;;;;4998055;28;20070;-82
2023/07/09 10:59:43;;;;;;;6.53;1.55;;;24.20;99.90;;;;;;4963409;28;20062;-82
2023/07/09 11:02:09;;;;;;;7.43;2.10;;;24.30;99.90;;;;;;4997516;28;20046;-81
2023/07/09 11:04:36;;;;;;;8.02;1.75;;;24.30;99.90;;;;;;4996477;28;20062;-81
2023/07/09 11:07:03;;;;;;;8.65;1.40;;;24.30;99.90;;;;;;4964389;28;20449;-81
2023/07/09 11:09:30;;;;;;;7.22;1.60;;;24.20;99.90;;;;;;4997832;28;20058;-81
2023/07/09 11:11:57;;;;;;;7.75;2.13;;;24.00;99.90;;;;;;4996427;28;20050;-84
2023/07/09 11:14:24;;;;;;;7.13;1.85;;;24.00;99.90;;;;;;4997075;28;20076;-81
2023/07/09 11:16:52;;;;;;;8.13;2.00;;;24.10;99.90;;;;;;4997390;28;20128;-85
2023/07/09 11:19:18;;;;;;;8.35;2.08;;;23.90;99.90;;;;;;4996311;28;20053;-81
2023/07/09 11:21:45;;;;;;;6.55;1.95;;;23.90;99.90;;;;;;4997442;28;20366;-84
2023/07/09 11:24:13;;;;;;;7.03;1.67;;;24.00;99.90;;;;;;4997255;28;20042;-82
2023/07/09 11:26:42;;;;;;;7.40;1.85;;;24.10;99.90;;;;;;4996189;28;20046;-83
2023/07/09 11:29:09;;;;;;;9.75;1.75;;;24.40;99.90;;;;;;4997708;28;20501;-82
2023/07/09 11:31:35;;;;;;;7.55;1.50;;;24.20;99.90;;;;;;4996075;28;20057;-83
2023/07/09 11:34:02;;;;;;;7.80;1.63;;;23.90;99.90;;;;;;4979544;28;20141;-83
2023/07/09 11:39:32;;;;;;;5.45;1.45;;;24.30;99.90;;;;;;4995949;28;20449;-83
2023/07/09 11:41:59;;;;;;;11.48;2.15;;;24.40;99.90;;;;;;4996676;28;20038;-84
2023/07/09 11:44:28;;;;;;;9.38;2.10;;;24.40;99.90;;;;;;4978340;28;20050;-82
2023/07/09 11:46:56;;;;;;;10.73;1.85;;;24.40;99.90;;;;;;4991328;28;20035;-82
2023/07/09 11:49:22;;;;;;;10.23;2.10;;;24.20;99.90;;;;;;4996778;28;20038;-83
2023/07/09 11:51:50;;;;;;;6.45;1.77;;;24.20;99.90;;;;;;4995720;28;20038;-86
2023/07/09 11:54:17;;;;;;;8.82;1.80;;;24.10;99.90;;;;;;4995377;28;20054;-81
2023/07/09 11:56:45;;;;;;;7.25;1.50;;;23.90;99.90;;;;;;4996287;28;20081;-82
2023/07/09 11:59:12;;;;;;;9.13;2.58;;;23.90;99.90;;;;;;4995626;28;20116;-82
2023/07/09 12:01:39;;;;;;;7.82;2.03;;;24.20;99.90;;;;;;4996435;28;20070;-82
2023/07/09 12:04:06;;;;;;;9.48;2.17;;;24.50;99.90;;;;;;4995452;28;20129;-81
2023/07/09 12:06:34;;;;;;;9.77;2.47;;;24.70;99.90;;;;;;4995421;28;20095;-82
2023/07/09 12:09:01;;;;;;;9.57;2.15;;;24.80;99.90;;;;;;4995226;28;20054;-79
2023/07/09 12:11:27;;;;;;;8.52;1.90;;;25.10;99.90;;;;;;4994826;28;20061;-82
2023/07/09 12:13:54;;;;;;;8.90;2.55;;;25.40;99.90;;;;;;4978985;28;20458;-80
2023/07/09 12:16:21;;;;;;;8.30;1.98;;;25.30;99.90;;;;;;4996046;28;20492;-81
2023/07/09 12:18:48;;;;;;;9.35;2.13;;;25.30;99.90;;;;;;4978507;28;20076;-82
2023/07/09 12:21:15;;;;;;;8.40;2.35;;;25.30;99.90;;;;;;4995306;28;20066;-83
2023/07/09 12:23:41;;;;;;;9.43;2.35;;;25.30;99.90;;;;;;4994922;28;20461;-81
2023/07/09 12:26:09;;;;;;;10.18;2.42;;;25.50;99.90;;;;;;4994872;28;20401;-82
2023/07/09 12:28:36;;;;;;;10.10;2.67;;;25.60;99.90;;;;;;4994787;28;20081;-82
2023/07/09 12:31:02;;;;;;;10.65;2.60;;;25.80;99.90;;;;;;4978621;28;20137;-82
2023/07/09 12:33:30;;;;;;;9.32;2.67;;;25.80;99.90;;;;;;4996244;28;20113;-81
2023/07/09 12:35:58;;;;;;;10.15;2.58;;;25.80;99.90;;;;;;4995048;28;20557;-83
2023/07/09 12:38:24;;;;;;;11.98;3.13;;;26.10;99.90;;;;;;4994448;28;20484;-81
2023/07/09 12:40:51;;;;;;;9.73;2.42;;;26.10;99.90;;;;;;4995767;28;20112;-81
2023/07/09 12:43:18;;;;;;;8.57;2.75;;;25.50;99.90;;;;;;4995699;28;20059;-80
2023/07/09 12:45:46;;;;;;;12.25;3.05;;;25.40;99.90;;;;;;4994307;28;20130;-83
2023/07/09 12:48:13;;;;;;;13.48;3.28;;;25.30;99.90;;;;;;4995034;28;20117;-81
2023/07/09 12:50:40;;;;;;;10.65;4.47;;;25.20;99.90;;;;;;4994884;28;20161;-83
2023/07/09 12:53:07;;;;;;;14.90;3.60;;;25.20;99.90;;;;;;4994619;28;20098;-84
2023/07/09 12:58:22;;;;;;;12.63;2.95;;;24.70;99.90;;;;;;4993855;28;20050;-79
2023/07/09 13:00:51;;;;;;;9.57;2.35;;;24.40;99.90;;;;;;4994330;28;20093;-82
2023/07/09 13:03:18;;;;;;;6.63;1.75;;;24.20;99.90;;;;;;4995397;28;20030;-80
2023/07/09 13:05:45;;;;;;;8.57;2.28;;;24.00;99.90;;;;;;4994016;28;20361;-81